sensor_id;sensor_type;location;lat;lon;timestamp;pressure;altitude;pressure_sealevel;temperature;humidity
43838;BME280;29493;46.516;6.638;2022-07-29T14:37:15;96089.72;;;25.08;100.00
43838;BME280;29493;46.516;6.638;2022-07-29T14:39:41;96093.09;;;25.41;100.00
43838;BME280;29493;46.516;6.638;2022-07-29T14:42:07;96089.81;;;25.62;100.00
43838;BME280;29493;46.516;6.638;2022-07-29T14:44:33;96090.16;;;25.66;100.00
43838;BME280;29493;46.516;6.638;2022-07-29T14:46:59;96082.91;;;25.72;100.00
43838;BME280;29493;46.516;6.638;2022-07-29T14:49:26;96090.84;;;25.84;100.00
43838;BME280;29493;46.516;6.638;2022-07-29T14:51:52;96081.16;;;25.77;100.00
43838;BME280;29493;46.516;6.638;2022-07-29T14:54:18;96080.69;;;25.71;100.00
43838;BME280;29493;46.516;6.638;2022-07-29T14:56:43;96075.47;;;25.67;100.00
43838;BME280;29493;46.516;6.638;2022-07-29T14:59:09;96075.97;;;25.56;100.00
43838;BME280;29493;46.516;6.638;2022-07-29T15:01:35;96081.63;;;25.56;100.00
43838;BME280;29493;46.516;6.638;2022-07-29T15:04:03;96070.75;;;25.53;100.00
43838;BME280;29493;46.516;6.638;2022-07-29T15:06:29;96063.59;;;25.69;100.00
43838;BME280;29493;46.516;6.638;2022-07-29T15:08:54;96071.69;;;25.82;100.00
43838;BME280;29493;46.516;6.638;2022-07-29T15:11:20;96067.22;;;25.79;100.00
43838;BME280;29493;46.516;6.638;2022-07-29T15:13:46;96070.34;;;25.83;100.00
43838;BME280;29493;46.516;6.638;2022-07-29T15:16:11;96065.66;;;25.95;100.00
43838;BME280;29493;46.516;6.638;2022-07-29T15:18:37;96064.31;;;26.23;100.00
43838;BME280;29493;46.516;6.638;2022-07-29T15:21:04;96048.16;;;26.33;97.92
43838;BME280;29493;46.516;6.638;2022-07-29T15:23:32;96053.31;;;26.27;92.23
43838;BME280;29493;46.516;6.638;2022-07-29T15:25:58;96048.47;;;26.01;100.00
43838;BME280;29493;46.516;6.638;2022-07-29T15:28:24;96048.09;;;25.87;97.98
43838;BME280;29493;46.516;6.638;2022-07-29T15:30:49;96049.59;;;25.88;96.56
43838;BME280;29493;46.516;6.638;2022-07-29T15:33:15;96044.44;;;25.67;100.00
43838;BME280;29493;46.516;6.638;2022-07-29T15:35:41;96048.19;;;25.53;100.00
43838;BME280;29493;46.516;6.638;2022-07-29T15:38:07;96053.78;;;25.43;100.00
43838;BME280;29493;46.516;6.638;2022-07-29T15:40:33;96053.13;;;25.35;100.00
43838;BME280;29493;46.516;6.638;2022-07-29T15:42:58;96045.72;;;25.12;100.00
43838;BME280;29493;46.516;6.638;2022-07-29T15:45:40;96054.91;;;25.13;100.00
43838;BME280;29493;46.516;6.638;2022-07-29T15:48:08;96050.53;;;25.02;100.00
43838;BME280;29493;46.516;6.638;2022-07-29T15:50:34;96044.75;;;24.93;100.00
43838;BME280;29493;46.516;6.638;2022-07-29T15:53:01;96045.66;;;24.95;100.00
43838;BME280;29493;46.516;6.638;2022-07-29T15:55:27;96054.88;;;24.96;100.00
43838;BME280;29493;46.516;6.638;2022-07-29T15:57:53;96045.47;;;25.01;100.00
43838;BME280;29493;46.516;6.638;2022-07-29T16:00:18;96049.22;;;24.96;100.00
43838;BME280;29493;46.516;6.638;2022-07-29T16:02:44;96054.22;;;24.88;100.00
43838;BME280;29493;46.516;6.638;2022-07-29T16:05:10;96048.16;;;24.74;100.00
43838;BME280;29493;46.516;6.638;2022-07-29T16:07:35;96048.16;;;24.57;100.00
43838;BME280;29493;46.516;6.638;2022-07-29T16:10:02;96044.66;;;24.48;100.00
43838;BME280;29493;46.516;6.638;2022-07-29T16:12:28;96045.66;;;24.43;100.00
43838;BME280;29493;46.516;6.638;2022-07-29T16:14:53;96042.66;;;24.41;100.00
43838;BME280;29493;46.516;6.638;2022-07-29T16:17:19;96039.19;;;24.50;100.00
43838;BME280;29493;46.516;6.638;2022-07-29T16:19:45;96040.53;;;24.84;100.00
43838;BME280;29493;46.516;6.638;2022-07-29T16:22:10;96046.84;;;24.75;100.00
43838;BME280;29493;46.516;6.638;2022-07-29T16:24:36;96043.94;;;24.65;100.00
43838;BME280;29493;46.516;6.638;2022-07-29T16:27:03;96037.88;;;24.69;100.00
43838;BME280;29493;46.516;6.638;2022-07-29T16:29:29;96045.28;;;25.16;100.00
43838;BME280;29493;46.516;6.638;2022-07-29T16:31:54;96033.47;;;25.71;99.71
43838;BME280;29493;46.516;6.638;2022-07-29T16:34:20;96036.75;;;25.51;94.56
43838;BME280;29493;46.516;6.638;2022-07-29T16:36:45;96039.13;;;25.71;95.60
43838;BME280;29493;46.516;6.638;2022-07-29T16:39:11;96033.22;;;25.77;95.16
43838;BME280;29493;46.516;6.638;2022-07-29T16:41:37;96029.72;;;25.96;93.40
43838;BME280;29493;46.516;6.638;2022-07-29T16:44:02;96029.97;;;25.81;93.41
43838;BME280;29493;46.516;6.638;2022-07-29T16:46:28;96035.47;;;25.61;94.24
43838;BME280;29493;46.516;6.638;2022-07-29T16:48:54;96036.28;;;25.44;98.14
43838;BME280;29493;46.516;6.638;2022-07-29T16:51:19;96038.94;;;25.42;98.17
43838;BME280;29493;46.516;6.638;2022-07-29T16:53:45;96045.59;;;25.37;100.00
43838;BME280;29493;46.516;6.638;2022-07-29T16:56:11;96044.63;;;25.25;100.00
43838;BME280;29493;46.516;6.638;2022-07-29T16:58:36;96048.53;;;25.12;100.00
43838;BME280;29493;46.516;6.638;2022-07-29T17:01:02;96047.38;;;24.98;100.00
43838;BME280;29493;46.516;6.638;2022-07-29T17:03:28;96043.69;;;24.88;100.00
43838;BME280;29493;46.516;6.638;2022-07-29T17:05:53;96048.00;;;24.89;100.00
43838;BME280;29493;46.516;6.638;2022-07-29T17:08:19;96052.66;;;25.29;100.00
43838;BME280;29493;46.516;6.638;2022-07-29T17:10:44;96039.25;;;26.00;94.62
43838;BME280;29493;46.516;6.638;2022-07-29T17:13:10;96038.00;;;27.34;81.58
43838;BME280;29493;46.516;6.638;2022-07-29T17:15:35;96037.19;;;28.23;72.89
43838;BME280;29493;46.516;6.638;2022-07-29T17:18:01;96040.47;;;27.79;74.25
43838;BME280;29493;46.516;6.638;2022-07-29T17:20:27;96047.25;;;27.35;79.65
43838;BME280;29493;46.516;6.638;2022-07-29T17:22:53;96045.19;;;27.07;80.24
43838;BME280;29493;46.516;6.638;2022-07-29T17:25:19;96044.69;;;26.81;82.50
43838;BME280;29493;46.516;6.638;2022-07-29T17:27:45;96044.97;;;26.66;84.18
43838;BME280;29493;46.516;6.638;2022-07-29T17:30:10;96050.66;;;27.43;75.05
43838;BME280;29493;46.516;6.638;2022-07-29T17:32:36;96050.53;;;27.91;70.65
43838;BME280;29493;46.516;6.638;2022-07-29T17:35:06;96053.22;;;28.61;62.07
43838;BME280;29493;46.516;6.638;2022-07-29T17:37:52;96049.06;;;29.05;61.72
43838;BME280;29493;46.516;6.638;2022-07-29T17:40:18;96050.72;;;28.55;63.13
43838;BME280;29493;46.516;6.638;2022-07-29T17:42:43;96047.06;;;28.03;66.39
43838;BME280;29493;46.516;6.638;2022-07-29T17:45:09;96043.34;;;27.50;66.16
43838;BME280;29493;46.516;6.638;2022-07-29T17:47:34;96044.25;;;27.33;68.55
43838;BME280;29493;46.516;6.638;2022-07-29T17:50:02;96053.75;;;26.89;73.12
43838;BME280;29493;46.516;6.638;2022-07-29T17:52:28;96054.00;;;26.55;79.52
43838;BME280;29493;46.516;6.638;2022-07-29T17:54:54;96053.31;;;26.27;85.23
43838;BME280;29493;46.516;6.638;2022-07-29T17:57:19;96057.56;;;26.09;85.04
43838;BME280;29493;46.516;6.638;2022-07-29T17:59:45;96061.41;;;26.04;88.08
43838;BME280;29493;46.516;6.638;2022-07-29T18:02:10;96055.34;;;25.81;91.67
43838;BME280;29493;46.516;6.638;2022-07-29T18:04:37;96060.78;;;25.69;93.60
43838;BME280;29493;46.516;6.638;2022-07-29T18:07:03;96053.09;;;25.52;97.14
43838;BME280;29493;46.516;6.638;2022-07-29T18:09:28;96060.84;;;25.34;96.78
43838;BME280;29493;46.516;6.638;2022-07-29T18:11:54;96064.09;;;25.13;100.00
43838;BME280;29493;46.516;6.638;2022-07-29T18:14:20;96057.69;;;24.96;100.00
43838;BME280;29493;46.516;6.638;2022-07-29T18:16:46;96063.31;;;24.78;100.00
43838;BME280;29493;46.516;6.638;2022-07-29T18:19:11;96069.94;;;24.56;100.00
43838;BME280;29493;46.516;6.638;2022-07-29T18:21:37;96072.38;;;24.35;100.00
43838;BME280;29493;46.516;6.638;2022-07-29T18:24:02;96066.84;;;24.19;100.00
43838;BME280;29493;46.516;6.638;2022-07-29T18:26:28;96070.31;;;24.10;100.00
43838;BME280;29493;46.516;6.638;2022-07-29T18:28:53;96074.50;;;24.02;100.00
43838;BME280;29493;46.516;6.638;2022-07-29T18:31:19;96078.69;;;23.93;100.00
43838;BME280;29493;46.516;6.638;2022-07-29T18:33:44;96077.03;;;23.82;100.00
43838;BME280;29493;46.516;6.638;2022-07-29T18:36:10;96069.97;;;23.74;100.00
43838;BME280;29493;46.516;6.638;2022-07-29T18:38:35;96079.19;;;23.67;100.00
43838;BME280;29493;46.516;6.638;2022-07-29T18:41:01;96079.06;;;23.57;100.00
43838;BME280;29493;46.516;6.638;2022-07-29T18:43:27;96082.66;;;23.42;100.00
43838;BME280;29493;46.516;6.638;2022-07-29T18:45:52;96087.75;;;23.36;100.00
43838;BME280;29493;46.516;6.638;2022-07-29T18:48:17;96079.53;;;23.31;100.00
43838;BME280;29493;46.516;6.638;2022-07-29T18:50:43;96078.09;;;23.22;100.00
43838;BME280;29493;46.516;6.638;2022-07-29T18:53:08;96081.13;;;23.09;100.00
43838;BME280;29493;46.516;6.638;2022-07-29T18:55:34;96077.59;;;23.01;100.00
43838;BME280;29493;46.516;6.638;2022-07-29T18:58:00;96071.44;;;22.95;100.00
43838;BME280;29493;46.516;6.638;2022-07-29T19:00:26;96076.13;;;22.84;100.00
43838;BME280;29493;46.516;6.638;2022-07-29T19:02:51;96082.13;;;22.81;100.00
43838;BME280;29493;46.516;6.638;2022-07-29T19:05:17;96084.16;;;22.73;100.00
43838;BME280;29493;46.516;6.638;2022-07-29T19:07:43;96087.94;;;22.68;100.00
43838;BME280;29493;46.516;6.638;2022-07-29T19:10:08;96088.13;;;22.62;100.00
43838;BME280;29493;46.516;6.638;2022-07-29T19:12:34;96084.38;;;22.59;100.00
43838;BME280;29493;46.516;6.638;2022-07-29T19:14:59;96098.44;;;22.52;100.00
43838;BME280;29493;46.516;6.638;2022-07-29T19:17:25;96100.88;;;22.48;100.00
43838;BME280;29493;46.516;6.638;2022-07-29T19:19:51;96103.88;;;22.42;100.00
43838;BME280;29493;46.516;6.638;2022-07-29T19:22:20;96107.97;;;22.34;100.00
43838;BME280;29493;46.516;6.638;2022-07-29T19:24:46;96107.03;;;22.23;100.00
43838;BME280;29493;46.516;6.638;2022-07-29T19:27:12;96114.16;;;22.17;100.00
43838;BME280;29493;46.516;6.638;2022-07-29T19:29:37;96113.41;;;22.09;100.00
43838;BME280;29493;46.516;6.638;2022-07-29T19:32:03;96120.47;;;22.02;100.00
43838;BME280;29493;46.516;6.638;2022-07-29T19:34:29;96120.28;;;22.00;100.00
43838;BME280;29493;46.516;6.638;2022-07-29T19:36:54;96125.50;;;21.96;100.00
43838;BME280;29493;46.516;6.638;2022-07-29T19:39:20;96129.22;;;21.91;100.00
43838;BME280;29493;46.516;6.638;2022-07-29T19:41:45;96136.50;;;21.86;100.00
43838;BME280;29493;46.516;6.638;2022-07-29T19:44:12;96138.72;;;21.80;100.00
43838;BME280;29493;46.516;6.638;2022-07-29T19:46:38;96138.69;;;21.73;100.00
43838;BME280;29493;46.516;6.638;2022-07-29T19:49:03;96143.34;;;21.62;100.00
43838;BME280;29493;46.516;6.638;2022-07-29T19:51:31;96149.09;;;21.57;100.00
43838;BME280;29493;46.516;6.638;2022-07-29T19:53:56;96150.03;;;21.52;100.00
43838;BME280;29493;46.516;6.638;2022-07-29T19:56:22;96154.50;;;21.47;100.00
43838;BME280;29493;46.516;6.638;2022-07-29T19:58:50;96160.47;;;21.44;100.00
43838;BME280;29493;46.516;6.638;2022-07-29T20:01:16;96163.63;;;21.40;100.00
43838;BME280;29493;46.516;6.638;2022-07-29T20:03:42;96166.41;;;21.40;100.00
43838;BME280;29493;46.516;6.638;2022-07-29T20:06:08;96167.72;;;21.39;100.00
43838;BME280;29493;46.516;6.638;2022-07-29T20:08:34;96177.03;;;21.34;100.00
43838;BME280;29493;46.516;6.638;2022-07-29T20:11:00;96174.59;;;21.30;100.00
43838;BME280;29493;46.516;6.638;2022-07-29T20:13:26;96177.94;;;21.29;100.00
43838;BME280;29493;46.516;6.638;2022-07-29T20:15:51;96174.59;;;21.30;100.00
43838;BME280;29493;46.516;6.638;2022-07-29T20:18:17;96170.84;;;21.28;100.00
43838;BME280;29493;46.516;6.638;2022-07-29T20:20:42;96179.25;;;21.28;100.00
43838;BME280;29493;46.516;6.638;2022-07-29T20:23:08;96172.69;;;21.25;100.00
43838;BME280;29493;46.516;6.638;2022-07-29T20:25:35;96176.25;;;21.26;100.00
43838;BME280;29493;46.516;6.638;2022-07-29T20:28:01;96179.06;;;21.26;100.00
43838;BME280;29493;46.516;6.638;2022-07-29T20:30:26;96179.06;;;21.26;100.00
43838;BME280;29493;46.516;6.638;2022-07-29T20:32:52;96173.25;;;21.24;100.00
43838;BME280;29493;46.516;6.638;2022-07-29T20:35:19;96175.06;;;21.21;100.00
43838;BME280;29493;46.516;6.638;2022-07-29T20:37:46;96179.41;;;21.22;100.00
43838;BME280;29493;46.516;6.638;2022-07-29T20:40:12;96174.31;;;21.21;100.00
43838;BME280;29493;46.516;6.638;2022-07-29T20:42:37;96172.63;;;21.18;100.00
43838;BME280;29493;46.516;6.638;2022-07-29T20:45:03;96168.88;;;21.15;100.00
43838;BME280;29493;46.516;6.638;2022-07-29T20:47:28;96169.97;;;21.12;100.00
43838;BME280;29493;46.516;6.638;2022-07-29T20:49:54;96166.44;;;21.12;100.00
43838;BME280;29493;46.516;6.638;2022-07-29T20:52:19;96167.94;;;21.13;100.00
43838;BME280;29493;46.516;6.638;2022-07-29T20:54:46;96166.63;;;21.14;100.00
43838;BME280;29493;46.516;6.638;2022-07-29T20:57:12;96164.94;;;21.11;100.00
43838;BME280;29493;46.516;6.638;2022-07-29T20:59:37;96158.19;;;21.06;100.00
43838;BME280;29493;46.516;6.638;2022-07-29T21:02:03;96163.59;;;21.04;100.00
43838;BME280;29493;46.516;6.638;2022-07-29T21:04:29;96169.19;;;21.04;100.00
43838;BME280;29493;46.516;6.638;2022-07-29T21:06:54;96160.03;;;21.03;100.00
43838;BME280;29493;46.516;6.638;2022-07-29T21:09:20;96159.66;;;20.99;100.00
43838;BME280;29493;46.516;6.638;2022-07-29T21:11:45;96157.59;;;21.00;100.00
43838;BME280;29493;46.516;6.638;2022-07-29T21:14:11;96159.66;;;20.99;100.00
43838;BME280;29493;46.516;6.638;2022-07-29T21:16:51;96161.91;;;21.01;100.00
43838;BME280;29493;46.516;6.638;2022-07-29T21:19:16;96169.16;;;20.96;100.00
43838;BME280;29493;46.516;6.638;2022-07-29T21:21:41;96160.34;;;20.92;100.00
43838;BME280;29493;46.516;6.638;2022-07-29T21:24:07;96160.91;;;20.91;100.00
43838;BME280;29493;46.516;6.638;2022-07-29T21:26:33;96159.41;;;20.90;100.00
43838;BME280;29493;46.516;6.638;2022-07-29T21:28:58;96157.91;;;20.89;100.00
43838;BME280;29493;46.516;6.638;2022-07-29T21:31:24;96163.69;;;20.91;100.00
43838;BME280;29493;46.516;6.638;2022-07-29T21:33:54;96162.19;;;20.90;100.00
43838;BME280;29493;46.516;6.638;2022-07-29T21:36:19;96168.34;;;20.88;100.00
43838;BME280;29493;46.516;6.638;2022-07-29T21:38:45;96164.06;;;20.87;100.00
43838;BME280;29493;46.516;6.638;2022-07-29T21:41:10;96168.91;;;20.87;100.00
43838;BME280;29493;46.516;6.638;2022-07-29T21:43:37;96173.19;;;20.88;100.00
43838;BME280;29493;46.516;6.638;2022-07-29T21:46:02;96168.34;;;20.88;100.00
43838;BME280;29493;46.516;6.638;2022-07-29T21:48:28;96171.16;;;20.88;100.00
43838;BME280;29493;46.516;6.638;2022-07-29T21:50:54;96171.16;;;20.88;100.00
43838;BME280;29493;46.516;6.638;2022-07-29T21:53:19;96173.19;;;20.88;100.00
43838;BME280;29493;46.516;6.638;2022-07-29T21:55:45;96172.44;;;20.87;100.00
43838;BME280;29493;46.516;6.638;2022-07-29T21:58:11;96166.66;;;20.85;100.00
43838;BME280;29493;46.516;6.638;2022-07-29T22:00:40;96179.50;;;20.81;100.00
43838;BME280;29493;46.516;6.638;2022-07-29T22:03:05;96174.41;;;20.79;100.00
43838;BME280;29493;46.516;6.638;2022-07-29T22:05:31;96177.75;;;20.78;100.00
43838;BME280;29493;46.516;6.638;2022-07-29T22:07:57;96174.78;;;20.76;100.00
43838;BME280;29493;46.516;6.638;2022-07-29T22:10:24;96173.06;;;20.72;100.00
43838;BME280;29493;46.516;6.638;2022-07-29T22:12:51;96172.88;;;20.70;100.00
43838;BME280;29493;46.516;6.638;2022-07-29T22:15:16;96179.00;;;20.69;100.00
43838;BME280;29493;46.516;6.638;2022-07-29T22:17:42;96179.56;;;20.67;100.00
43838;BME280;29493;46.516;6.638;2022-07-29T22:20:08;96181.19;;;20.63;100.00
43838;BME280;29493;46.516;6.638;2022-07-29T22:22:34;96185.09;;;20.60;100.00
43838;BME280;29493;46.516;6.638;2022-07-29T22:24:59;96194.78;;;20.59;100.00
43838;BME280;29493;46.516;6.638;2022-07-29T22:27:25;96190.28;;;20.56;100.00
43838;BME280;29493;46.516;6.638;2022-07-29T22:29:51;96193.44;;;20.52;100.00
43838;BME280;29493;46.516;6.638;2022-07-29T22:32:16;96188.94;;;20.49;100.00
43838;BME280;29493;46.516;6.638;2022-07-29T22:34:42;96194.31;;;20.47;100.00
43838;BME280;29493;46.516;6.638;2022-07-29T22:37:07;96189.28;;;20.46;100.00
43838;BME280;29493;46.516;6.638;2022-07-29T22:39:33;96193.16;;;20.43;100.00
43838;BME280;29493;46.516;6.638;2022-07-29T22:41:59;96193.91;;;20.43;100.00
43838;BME280;29493;46.516;6.638;2022-07-29T22:44:25;96200.25;;;20.44;100.00
43838;BME280;29493;46.516;6.638;2022-07-29T22:46:50;96201.75;;;20.45;100.00
43838;BME280;29493;46.516;6.638;2022-07-29T22:49:16;96205.09;;;20.43;100.00
43838;BME280;29493;46.516;6.638;2022-07-29T22:51:41;96201.00;;;20.44;100.00
43838;BME280;29493;46.516;6.638;2022-07-29T22:54:07;96198.00;;;20.42;100.00
43838;BME280;29493;46.516;6.638;2022-07-29T22:56:32;96204.16;;;20.40;100.00
43838;BME280;29493;46.516;6.638;2022-07-29T22:58:58;96205.22;;;20.37;100.00
43838;BME280;29493;46.516;6.638;2022-07-29T23:01:23;96207.25;;;20.37;100.00
43838;BME280;29493;46.516;6.638;2022-07-29T23:03:50;96211.16;;;20.34;100.00
43838;BME280;29493;46.516;6.638;2022-07-29T23:06:16;96211.91;;;20.34;100.00
43838;BME280;29493;46.516;6.638;2022-07-29T23:08:41;96215.44;;;20.35;100.00
43838;BME280;29493;46.516;6.638;2022-07-29T23:11:07;96212.00;;;20.42;100.00
43838;BME280;29493;46.516;6.638;2022-07-29T23:13:32;96207.56;;;20.47;100.00
43838;BME280;29493;46.516;6.638;2022-07-29T23:15:58;96220.38;;;20.42;100.00
43838;BME280;29493;46.516;6.638;2022-07-29T23:18:24;96214.91;;;20.36;100.00
43838;BME280;29493;46.516;6.638;2022-07-29T23:20:50;96216.00;;;20.33;100.00
43838;BME280;29493;46.516;6.638;2022-07-29T23:23:15;96218.03;;;20.33;100.00
43838;BME280;29493;46.516;6.638;2022-07-29T23:25:41;96215.78;;;20.31;100.00
43838;BME280;29493;46.516;6.638;2022-07-29T23:28:07;96208.34;;;20.34;100.00
43838;BME280;29493;46.516;6.638;2022-07-29T23:30:33;96218.78;;;20.33;100.00
43838;BME280;29493;46.516;6.638;2022-07-29T23:32:58;96223.63;;;20.33;100.00
43838;BME280;29493;46.516;6.638;2022-07-29T23:35:24;96217.50;;;20.34;100.00
43838;BME280;29493;46.516;6.638;2022-07-29T23:37:49;96215.44;;;20.35;100.00
43838;BME280;29493;46.516;6.638;2022-07-29T23:40:15;96217.50;;;20.34;100.00
43838;BME280;29493;46.516;6.638;2022-07-29T23:42:41;96220.28;;;20.34;100.00
43838;BME280;29493;46.516;6.638;2022-07-29T23:45:06;96222.13;;;20.32;100.00
43838;BME280;29493;46.516;6.638;2022-07-29T23:47:32;96221.91;;;20.30;100.00
43838;BME280;29493;46.516;6.638;2022-07-29T23:49:58;96222.66;;;20.30;100.00
43838;BME280;29493;46.516;6.638;2022-07-29T23:52:24;96218.16;;;20.27;100.00
43838;BME280;29493;46.516;6.638;2022-07-29T23:54:49;96220.75;;;20.25;100.00
43838;BME280;29493;46.516;6.638;2022-07-29T23:57:15;96219.25;;;20.24;100.00
43838;BME280;29493;46.516;6.638;2022-07-29T23:59:40;96222.81;;;20.25;100.00
